sensor_id;sensor_type;location;lat;lon;timestamp;pressure;altitude;pressure_sealevel;temperature;humidity
21185;BME280;18176;49.502;11.754;2022-07-29T00:02:36;96902.03;;;21.56;43.27
21185;BME280;18176;49.502;11.754;2022-07-29T00:06:33;96881.06;;;21.53;43.51
21185;BME280;18176;49.502;11.754;2022-07-29T00:10:30;96877.56;;;21.53;44.18
21185;BME280;18176;49.502;11.754;2022-07-29T00:14:28;96865.78;;;21.49;44.51
21185;BME280;18176;49.502;11.754;2022-07-29T00:18:25;96868.88;;;21.42;44.62
21185;BME280;18176;49.502;11.754;2022-07-29T00:22:25;96875.75;;;21.48;44.31
21185;BME280;18176;49.502;11.754;2022-07-29T00:26:23;96883.25;;;21.51;44.87
21185;BME280;18176;49.502;11.754;2022-07-29T00:30:20;96848.72;;;21.26;45.00
21185;BME280;18176;49.502;11.754;2022-07-29T00:34:17;96847.91;;;21.26;45.37
21185;BME280;18176;49.502;11.754;2022-07-29T00:38:33;96814.47;;;20.99;45.08
21185;BME280;18176;49.502;11.754;2022-07-29T00:42:30;96858.28;;;21.32;45.15
21185;BME280;18176;49.502;11.754;2022-07-29T00:46:27;96844.72;;;21.24;44.52
21185;BME280;18176;49.502;11.754;2022-07-29T00:50:24;96874.88;;;21.39;44.61
21185;BME280;18176;49.502;11.754;2022-07-29T00:54:21;96845.31;;;21.21;44.25
21185;BME280;18176;49.502;11.754;2022-07-29T00:58:19;96845.81;;;21.23;44.75
21185;BME280;18176;49.502;11.754;2022-07-29T01:02:16;96843.91;;;21.23;44.44
21185;BME280;18176;49.502;11.754;2022-07-29T01:06:15;96829.94;;;21.21;44.39
21185;BME280;18176;49.502;11.754;2022-07-29T01:10:15;96848.13;;;21.29;44.91
21185;BME280;18176;49.502;11.754;2022-07-29T01:14:17;96819.16;;;21.08;45.20
21185;BME280;18176;49.502;11.754;2022-07-29T01:18:36;96814.09;;;21.06;45.35
21185;BME280;18176;49.502;11.754;2022-07-29T01:26:57;96859.69;;;21.30;45.36
21185;BME280;18176;49.502;11.754;2022-07-29T01:30:56;96828.56;;;21.10;45.15
21185;BME280;18176;49.502;11.754;2022-07-29T01:35:05;96847.91;;;21.39;45.60
21185;BME280;18176;49.502;11.754;2022-07-29T01:39:19;96840.31;;;21.41;45.31
21185;BME280;18176;49.502;11.754;2022-07-29T01:43:27;96789.84;;;21.06;44.74
21185;BME280;18176;49.502;11.754;2022-07-29T01:52:08;96774.47;;;21.20;43.73
21185;BME280;18176;49.502;11.754;2022-07-29T01:56:10;96816.25;;;21.58;42.68
21185;BME280;18176;49.502;11.754;2022-07-29T02:00:09;96817.44;;;21.66;42.74
21185;BME280;18176;49.502;11.754;2022-07-29T02:04:10;96781.28;;;21.53;42.69
21185;BME280;18176;49.502;11.754;2022-07-29T02:08:27;96790.16;;;21.67;42.53
21185;BME280;18176;49.502;11.754;2022-07-29T02:12:29;96777.75;;;21.66;43.18
21185;BME280;18176;49.502;11.754;2022-07-29T02:16:30;96747.47;;;21.47;43.95
21185;BME280;18176;49.502;11.754;2022-07-29T02:20:30;96794.97;;;21.57;48.59
21185;BME280;18176;49.502;11.754;2022-07-29T02:24:30;96770.88;;;21.11;50.57
21185;BME280;18176;49.502;11.754;2022-07-29T02:28:29;96822.44;;;21.05;52.05
21185;BME280;18176;49.502;11.754;2022-07-29T02:32:28;96786.59;;;20.77;52.56
21185;BME280;18176;49.502;11.754;2022-07-29T02:36:27;96766.63;;;20.51;53.50
21185;BME280;18176;49.502;11.754;2022-07-29T02:40:26;96780.41;;;20.63;52.72
21185;BME280;18176;49.502;11.754;2022-07-29T02:44:25;96808.53;;;20.70;51.34
21185;BME280;18176;49.502;11.754;2022-07-29T02:48:57;96820.19;;;20.66;51.73
21185;BME280;18176;49.502;11.754;2022-07-29T02:53:05;96786.44;;;20.41;53.15
21185;BME280;18176;49.502;11.754;2022-07-29T02:57:14;96751.56;;;20.17;52.37
21185;BME280;18176;49.502;11.754;2022-07-29T03:01:25;96801.88;;;20.36;52.40
21185;BME280;18176;49.502;11.754;2022-07-29T03:05:27;96807.44;;;20.25;53.49
21185;BME280;18176;49.502;11.754;2022-07-29T03:09:25;96792.38;;;20.24;54.04
21185;BME280;18176;49.502;11.754;2022-07-29T03:13:24;96777.47;;;20.13;52.84
21185;BME280;18176;49.502;11.754;2022-07-29T03:17:23;96803.19;;;20.19;52.19
21185;BME280;18176;49.502;11.754;2022-07-29T03:21:20;96820.81;;;20.31;52.97
21185;BME280;18176;49.502;11.754;2022-07-29T03:25:19;96831.56;;;20.31;53.45
21185;BME280;18176;49.502;11.754;2022-07-29T03:29:16;96817.16;;;20.21;52.79
21185;BME280;18176;49.502;11.754;2022-07-29T03:33:16;96810.72;;;20.22;53.37
21185;BME280;18176;49.502;11.754;2022-07-29T03:37:13;96827.94;;;20.21;54.17
21185;BME280;18176;49.502;11.754;2022-07-29T03:41:13;96824.66;;;20.24;53.43
21185;BME280;18176;49.502;11.754;2022-07-29T03:45:17;96810.56;;;20.14;53.08
21185;BME280;18176;49.502;11.754;2022-07-29T03:49:16;96824.81;;;20.14;53.36
21185;BME280;18176;49.502;11.754;2022-07-29T03:53:14;96818.31;;;20.15;53.61
21185;BME280;18176;49.502;11.754;2022-07-29T03:57:12;96828.47;;;20.23;52.89
21185;BME280;18176;49.502;11.754;2022-07-29T04:01:11;96847.72;;;20.31;53.10
21185;BME280;18176;49.502;11.754;2022-07-29T04:05:13;96835.84;;;20.32;51.08
21185;BME280;18176;49.502;11.754;2022-07-29T04:09:11;96828.19;;;20.39;49.98
21185;BME280;18176;49.502;11.754;2022-07-29T04:13:08;96812.81;;;20.25;48.96
21185;BME280;18176;49.502;11.754;2022-07-29T04:17:05;96813.41;;;20.22;50.03
21185;BME280;18176;49.502;11.754;2022-07-29T04:21:02;96798.19;;;20.13;50.67
21185;BME280;18176;49.502;11.754;2022-07-29T04:25:00;96801.16;;;20.30;51.38
21185;BME280;18176;49.502;11.754;2022-07-29T04:29:00;96825.94;;;20.46;50.79
21185;BME280;18176;49.502;11.754;2022-07-29T04:32:58;96808.16;;;20.45;49.59
21185;BME280;18176;49.502;11.754;2022-07-29T04:36:57;96813.09;;;20.56;49.28
21185;BME280;18176;49.502;11.754;2022-07-29T04:40:54;96822.72;;;20.76;48.79
21185;BME280;18176;49.502;11.754;2022-07-29T04:44:51;96808.34;;;20.67;48.74
21185;BME280;18176;49.502;11.754;2022-07-29T04:48:49;96846.44;;;20.74;50.24
21185;BME280;18176;49.502;11.754;2022-07-29T04:52:46;96827.25;;;20.62;51.54
21185;BME280;18176;49.502;11.754;2022-07-29T04:56:43;96840.84;;;20.84;51.23
21185;BME280;18176;49.502;11.754;2022-07-29T05:00:40;96824.91;;;20.87;50.69
21185;BME280;18176;49.502;11.754;2022-07-29T05:04:37;96840.41;;;21.09;49.19
21185;BME280;18176;49.502;11.754;2022-07-29T05:08:34;96852.91;;;21.32;48.38
21185;BME280;18176;49.502;11.754;2022-07-29T05:12:32;96822.97;;;21.20;48.03
21185;BME280;18176;49.502;11.754;2022-07-29T05:16:29;96845.31;;;21.34;47.78
21185;BME280;18176;49.502;11.754;2022-07-29T05:20:28;96851.63;;;21.43;47.87
21185;BME280;18176;49.502;11.754;2022-07-29T05:24:26;96834.53;;;21.34;48.25
21185;BME280;18176;49.502;11.754;2022-07-29T05:28:23;96843.91;;;21.50;48.58
21185;BME280;18176;49.502;11.754;2022-07-29T05:32:20;96852.25;;;21.90;47.27
21185;BME280;18176;49.502;11.754;2022-07-29T05:36:17;96855.66;;;21.95;47.58
21185;BME280;18176;49.502;11.754;2022-07-29T05:40:14;96853.41;;;22.11;47.97
21185;BME280;18176;49.502;11.754;2022-07-29T05:44:12;96832.19;;;22.18;47.36
21185;BME280;18176;49.502;11.754;2022-07-29T05:48:10;96840.31;;;22.40;47.00
21185;BME280;18176;49.502;11.754;2022-07-29T05:52:08;96855.00;;;22.70;45.80
21185;BME280;18176;49.502;11.754;2022-07-29T05:56:06;96854.53;;;22.76;45.55
21185;BME280;18176;49.502;11.754;2022-07-29T06:00:04;96844.84;;;22.75;44.88
21185;BME280;18176;49.502;11.754;2022-07-29T06:04:08;96864.72;;;22.79;44.14
21185;BME280;18176;49.502;11.754;2022-07-29T06:08:05;96868.16;;;22.71;44.38
21185;BME280;18176;49.502;11.754;2022-07-29T06:12:05;96859.31;;;22.79;44.83
21185;BME280;18176;49.502;11.754;2022-07-29T06:16:02;96851.53;;;22.78;45.43
21185;BME280;18176;49.502;11.754;2022-07-29T06:19:59;96841.16;;;22.71;45.11
21185;BME280;18176;49.502;11.754;2022-07-29T06:23:56;96855.97;;;22.74;45.30
21185;BME280;18176;49.502;11.754;2022-07-29T06:27:53;96871.03;;;22.75;45.17
21185;BME280;18176;49.502;11.754;2022-07-29T06:31:51;96839.66;;;22.43;45.79
21185;BME280;18176;49.502;11.754;2022-07-29T06:35:48;96849.56;;;22.48;46.01
21185;BME280;18176;49.502;11.754;2022-07-29T06:39:49;96865.19;;;22.59;46.25
21185;BME280;18176;49.502;11.754;2022-07-29T06:44:06;96872.63;;;22.54;46.12
21185;BME280;18176;49.502;11.754;2022-07-29T06:48:04;96851.22;;;22.57;45.52
21185;BME280;18176;49.502;11.754;2022-07-29T06:52:01;96846.31;;;22.81;44.68
21185;BME280;18176;49.502;11.754;2022-07-29T06:56:00;96873.31;;;23.43;44.08
21185;BME280;18176;49.502;11.754;2022-07-29T06:59:57;96873.75;;;23.84;42.78
21185;BME280;18176;49.502;11.754;2022-07-29T07:03:54;96885.59;;;24.22;42.08
21185;BME280;18176;49.502;11.754;2022-07-29T07:07:51;96874.47;;;24.50;42.18
21185;BME280;18176;49.502;11.754;2022-07-29T07:11:51;96852.44;;;24.77;42.07
21185;BME280;18176;49.502;11.754;2022-07-29T07:15:50;96879.47;;;25.11;41.78
21185;BME280;18176;49.502;11.754;2022-07-29T07:19:48;96871.28;;;25.20;41.86
21185;BME280;18176;49.502;11.754;2022-07-29T07:23:46;96878.50;;;25.53;41.68
21185;BME280;18176;49.502;11.754;2022-07-29T07:27:45;96878.06;;;25.81;41.08
21185;BME280;18176;49.502;11.754;2022-07-29T07:31:42;96867.53;;;25.79;41.10
21185;BME280;18176;49.502;11.754;2022-07-29T07:35:41;96862.31;;;25.95;39.69
21185;BME280;18176;49.502;11.754;2022-07-29T07:39:39;96862.28;;;26.24;38.92
21185;BME280;18176;49.502;11.754;2022-07-29T07:43:36;96857.84;;;26.40;38.46
21185;BME280;18176;49.502;11.754;2022-07-29T07:47:33;96861.69;;;26.39;38.34
21185;BME280;18176;49.502;11.754;2022-07-29T07:51:30;96877.34;;;26.95;38.12
21185;BME280;18176;49.502;11.754;2022-07-29T07:55:27;96837.59;;;26.70;37.89
21185;BME280;18176;49.502;11.754;2022-07-29T07:59:28;96861.56;;;27.01;37.51
21185;BME280;18176;49.502;11.754;2022-07-29T08:03:25;96857.38;;;26.91;37.77
21185;BME280;18176;49.502;11.754;2022-07-29T08:07:22;96859.88;;;26.96;38.62
21185;BME280;18176;49.502;11.754;2022-07-29T08:11:20;96861.72;;;28.25;36.08
21185;BME280;18176;49.502;11.754;2022-07-29T08:15:17;96846.59;;;29.27;34.67
21185;BME280;18176;49.502;11.754;2022-07-29T08:19:15;96850.34;;;30.00;34.18
21185;BME280;18176;49.502;11.754;2022-07-29T08:23:12;96853.59;;;29.40;34.94
21185;BME280;18176;49.502;11.754;2022-07-29T08:27:10;96871.47;;;29.37;35.24
21185;BME280;18176;49.502;11.754;2022-07-29T08:31:27;96873.91;;;29.73;34.37
21185;BME280;18176;49.502;11.754;2022-07-29T08:35:25;96864.06;;;29.53;34.92
21185;BME280;18176;49.502;11.754;2022-07-29T08:39:24;96862.09;;;29.69;34.98
21185;BME280;18176;49.502;11.754;2022-07-29T08:43:21;96861.66;;;29.67;35.47
21185;BME280;18176;49.502;11.754;2022-07-29T08:47:18;96867.94;;;29.21;35.87
21185;BME280;18176;49.502;11.754;2022-07-29T08:51:18;96881.00;;;28.72;37.02
21185;BME280;18176;49.502;11.754;2022-07-29T08:55:16;96882.84;;;28.68;37.30
21185;BME280;18176;49.502;11.754;2022-07-29T08:59:20;96872.16;;;28.23;37.91
21185;BME280;18176;49.502;11.754;2022-07-29T09:03:22;96874.31;;;28.58;38.11
21185;BME280;18176;49.502;11.754;2022-07-29T09:07:19;96853.63;;;29.12;37.21
21185;BME280;18176;49.502;11.754;2022-07-29T09:11:16;96846.47;;;28.92;37.59
21185;BME280;18176;49.502;11.754;2022-07-29T09:15:14;96862.81;;;29.51;37.21
21185;BME280;18176;49.502;11.754;2022-07-29T09:19:28;96866.19;;;29.44;37.11
21185;BME280;18176;49.502;11.754;2022-07-29T09:23:25;96866.97;;;29.60;36.93
21185;BME280;18176;49.502;11.754;2022-07-29T09:27:25;96878.91;;;28.41;38.94
21185;BME280;18176;49.502;11.754;2022-07-29T09:31:34;96861.50;;;28.86;38.24
21185;BME280;18176;49.502;11.754;2022-07-29T09:35:34;96838.66;;;29.06;38.51
21185;BME280;18176;49.502;11.754;2022-07-29T09:39:38;96861.19;;;29.97;37.24
21185;BME280;18176;49.502;11.754;2022-07-29T09:43:56;96846.06;;;29.83;37.38
21185;BME280;18176;49.502;11.754;2022-07-29T09:47:54;96830.06;;;30.36;36.93
21185;BME280;18176;49.502;11.754;2022-07-29T09:52:08;96840.00;;;31.05;35.94
21185;BME280;18176;49.502;11.754;2022-07-29T09:56:05;96837.31;;;32.32;34.02
21185;BME280;18176;49.502;11.754;2022-07-29T10:00:13;96830.44;;;32.79;33.63
21185;BME280;18176;49.502;11.754;2022-07-29T10:04:11;96813.59;;;32.14;34.58
21185;BME280;18176;49.502;11.754;2022-07-29T10:08:10;96807.94;;;32.03;34.95
21185;BME280;18176;49.502;11.754;2022-07-29T10:12:13;96821.34;;;31.56;36.52
21185;BME280;18176;49.502;11.754;2022-07-29T10:16:12;96823.16;;;31.26;36.98
21185;BME280;18176;49.502;11.754;2022-07-29T10:20:10;96827.22;;;30.90;37.85
21185;BME280;18176;49.502;11.754;2022-07-29T10:24:12;96829.47;;;31.75;36.55
21185;BME280;18176;49.502;11.754;2022-07-29T10:28:10;96822.81;;;32.98;34.43
21185;BME280;18176;49.502;11.754;2022-07-29T10:32:37;96814.88;;;33.77;32.55
21185;BME280;18176;49.502;11.754;2022-07-29T10:45:57;96790.66;;;34.97;29.68
21185;BME280;18176;49.502;11.754;2022-07-29T10:50:02;96802.53;;;35.68;29.07
21185;BME280;18176;49.502;11.754;2022-07-29T10:53:59;96788.66;;;35.96;28.63
21185;BME280;18176;49.502;11.754;2022-07-29T10:58:17;96802.50;;;35.37;29.60
21185;BME280;18176;49.502;11.754;2022-07-29T11:15:25;96770.41;;;34.30;30.79
21185;BME280;18176;49.502;11.754;2022-07-29T11:19:28;96778.19;;;34.14;30.85
21185;BME280;18176;49.502;11.754;2022-07-29T11:23:31;96753.44;;;34.17;30.70
21185;BME280;18176;49.502;11.754;2022-07-29T11:27:34;96775.25;;;34.75;30.17
21185;BME280;18176;49.502;11.754;2022-07-29T11:31:39;96766.72;;;36.69;27.91
21185;BME280;18176;49.502;11.754;2022-07-29T11:35:40;96758.03;;;36.71;27.70
21185;BME280;18176;49.502;11.754;2022-07-29T11:43:56;96737.13;;;35.72;27.89
21185;BME280;18176;49.502;11.754;2022-07-29T11:47:57;96763.88;;;36.00;28.00
21185;BME280;18176;49.502;11.754;2022-07-29T11:52:19;96757.66;;;38.09;25.89
21185;BME280;18176;49.502;11.754;2022-07-29T11:56:21;96754.63;;;37.59;25.06
21185;BME280;18176;49.502;11.754;2022-07-29T12:00:29;96749.97;;;37.89;24.53
21185;BME280;18176;49.502;11.754;2022-07-29T12:04:26;96728.13;;;38.89;23.90
21185;BME280;18176;49.502;11.754;2022-07-29T12:08:24;96709.41;;;38.10;24.58
21185;BME280;18176;49.502;11.754;2022-07-29T12:12:23;96735.41;;;36.17;26.90
21185;BME280;18176;49.502;11.754;2022-07-29T12:16:21;96739.50;;;34.96;27.61
21185;BME280;18176;49.502;11.754;2022-07-29T12:20:28;96730.03;;;34.69;28.68
21185;BME280;18176;49.502;11.754;2022-07-29T12:30:03;96718.31;;;38.54;24.56
21185;BME280;18176;49.502;11.754;2022-07-29T12:34:01;96699.63;;;38.62;24.36
21185;BME280;18176;49.502;11.754;2022-07-29T12:37:58;96695.72;;;38.86;24.58
21185;BME280;18176;49.502;11.754;2022-07-29T12:41:57;96713.03;;;38.37;25.24
21185;BME280;18176;49.502;11.754;2022-07-29T12:46:13;96708.72;;;38.62;24.96
21185;BME280;18176;49.502;11.754;2022-07-29T12:50:15;96706.13;;;39.28;24.51
21185;BME280;18176;49.502;11.754;2022-07-29T12:54:20;96694.97;;;38.29;24.94
21185;BME280;18176;49.502;11.754;2022-07-29T13:02:26;96668.00;;;36.84;26.02
21185;BME280;18176;49.502;11.754;2022-07-29T13:06:41;96684.78;;;34.56;29.59
21185;BME280;18176;49.502;11.754;2022-07-29T13:10:45;96672.94;;;33.48;30.30
21185;BME280;18176;49.502;11.754;2022-07-29T13:14:48;96680.31;;;32.83;31.35
21185;BME280;18176;49.502;11.754;2022-07-29T13:18:46;96684.75;;;32.54;31.99
21185;BME280;18176;49.502;11.754;2022-07-29T13:22:48;96697.75;;;31.90;32.62
21185;BME280;18176;49.502;11.754;2022-07-29T13:26:45;96698.81;;;31.27;34.06
21185;BME280;18176;49.502;11.754;2022-07-29T13:30:42;96666.09;;;30.62;36.42
21185;BME280;18176;49.502;11.754;2022-07-29T13:34:43;96711.03;;;29.65;40.70
21185;BME280;18176;49.502;11.754;2022-07-29T13:38:40;96757.84;;;27.87;47.33
21185;BME280;18176;49.502;11.754;2022-07-29T13:42:37;96719.75;;;25.89;56.03
21185;BME280;18176;49.502;11.754;2022-07-29T13:46:35;96784.59;;;25.02;58.68
21185;BME280;18176;49.502;11.754;2022-07-29T13:50:36;96776.81;;;24.20;62.28
21185;BME280;18176;49.502;11.754;2022-07-29T13:54:33;96817.88;;;23.80;68.56
21185;BME280;18176;49.502;11.754;2022-07-29T13:58:38;96818.13;;;23.04;74.38
21185;BME280;18176;49.502;11.754;2022-07-29T14:02:35;96780.91;;;22.40;77.90
21185;BME280;18176;49.502;11.754;2022-07-29T14:06:32;96787.59;;;22.20;79.19
21185;BME280;18176;49.502;11.754;2022-07-29T14:10:30;96786.69;;;22.03;81.58
21185;BME280;18176;49.502;11.754;2022-07-29T14:14:27;96784.94;;;21.85;83.02
21185;BME280;18176;49.502;11.754;2022-07-29T14:18:24;96776.44;;;21.78;82.81
21185;BME280;18176;49.502;11.754;2022-07-29T14:22:21;96785.66;;;21.99;81.86
21185;BME280;18176;49.502;11.754;2022-07-29T14:26:22;96788.25;;;22.04;84.11
21185;BME280;18176;49.502;11.754;2022-07-29T14:30:20;96765.69;;;22.00;88.20
21185;BME280;18176;49.502;11.754;2022-07-29T14:34:17;96758.09;;;22.02;90.77
21185;BME280;18176;49.502;11.754;2022-07-29T14:38:14;96744.84;;;22.14;92.70
21185;BME280;18176;49.502;11.754;2022-07-29T14:42:11;96785.19;;;22.41;90.68
21185;BME280;18176;49.502;11.754;2022-07-29T14:46:09;96782.53;;;22.72;93.00
21185;BME280;18176;49.502;11.754;2022-07-29T14:50:08;96787.63;;;23.13;92.00
21185;BME280;18176;49.502;11.754;2022-07-29T14:54:05;96768.47;;;23.40;92.09
21185;BME280;18176;49.502;11.754;2022-07-29T14:58:03;96772.38;;;24.07;90.70
21185;BME280;18176;49.502;11.754;2022-07-29T15:02:08;96766.28;;;24.27;87.53
21185;BME280;18176;49.502;11.754;2022-07-29T15:06:06;96774.56;;;23.88;88.03
21185;BME280;18176;49.502;11.754;2022-07-29T15:10:03;96769.94;;;23.46;88.33
21185;BME280;18176;49.502;11.754;2022-07-29T15:14:04;96784.59;;;23.14;90.51
21185;BME280;18176;49.502;11.754;2022-07-29T15:18:01;96789.00;;;22.93;91.35
21185;BME280;18176;49.502;11.754;2022-07-29T15:21:58;96769.97;;;23.07;89.66
21185;BME280;18176;49.502;11.754;2022-07-29T15:25:56;96781.38;;;23.43;87.25
21185;BME280;18176;49.502;11.754;2022-07-29T15:29:53;96799.06;;;23.83;85.63
21185;BME280;18176;49.502;11.754;2022-07-29T15:33:50;96784.13;;;23.86;84.33
21185;BME280;18176;49.502;11.754;2022-07-29T15:37:54;96789.09;;;24.09;82.68
21185;BME280;18176;49.502;11.754;2022-07-29T15:41:51;96784.94;;;24.03;83.36
21185;BME280;18176;49.502;11.754;2022-07-29T15:45:48;96793.03;;;23.95;83.22
21185;BME280;18176;49.502;11.754;2022-07-29T15:50:05;96796.44;;;24.17;82.16
21185;BME280;18176;49.502;11.754;2022-07-29T15:54:04;96799.41;;;24.24;80.63
21185;BME280;18176;49.502;11.754;2022-07-29T15:58:01;96804.34;;;24.05;79.53
21185;BME280;18176;49.502;11.754;2022-07-29T16:01:59;96810.13;;;24.12;79.46
21185;BME280;18176;49.502;11.754;2022-07-29T16:05:56;96789.19;;;23.79;78.54
21185;BME280;18176;49.502;11.754;2022-07-29T16:09:53;96797.03;;;23.97;78.77
21185;BME280;18176;49.502;11.754;2022-07-29T16:13:50;96808.03;;;24.09;78.51
21185;BME280;18176;49.502;11.754;2022-07-29T16:17:48;96803.56;;;24.13;79.00
21185;BME280;18176;49.502;11.754;2022-07-29T16:21:46;96793.06;;;24.03;79.00
21185;BME280;18176;49.502;11.754;2022-07-29T16:25:44;96776.66;;;23.91;79.89
21185;BME280;18176;49.502;11.754;2022-07-29T16:29:57;96783.94;;;23.65;78.26
21185;BME280;18176;49.502;11.754;2022-07-29T16:33:57;96801.91;;;23.52;79.05
21185;BME280;18176;49.502;11.754;2022-07-29T16:37:54;96803.97;;;23.47;78.45
21185;BME280;18176;49.502;11.754;2022-07-29T16:41:51;96809.19;;;23.35;79.19
21185;BME280;18176;49.502;11.754;2022-07-29T16:45:52;96811.47;;;23.11;78.80
21185;BME280;18176;49.502;11.754;2022-07-29T16:49:51;96799.13;;;22.87;80.01
21185;BME280;18176;49.502;11.754;2022-07-29T16:53:48;96814.84;;;22.85;79.10
21185;BME280;18176;49.502;11.754;2022-07-29T16:57:46;96793.03;;;22.51;78.85
21185;BME280;18176;49.502;11.754;2022-07-29T17:01:43;96839.06;;;22.46;79.27
21185;BME280;18176;49.502;11.754;2022-07-29T17:05:40;96871.09;;;22.39;81.61
21185;BME280;18176;49.502;11.754;2022-07-29T17:09:49;96896.31;;;21.85;89.71
21185;BME280;18176;49.502;11.754;2022-07-29T17:13:51;96876.25;;;21.23;95.14
21185;BME280;18176;49.502;11.754;2022-07-29T17:17:48;96869.22;;;20.95;98.76
21185;BME280;18176;49.502;11.754;2022-07-29T17:21:52;96864.03;;;20.98;99.86
21185;BME280;18176;49.502;11.754;2022-07-29T17:26:00;96874.78;;;20.85;100.00
21185;BME280;18176;49.502;11.754;2022-07-29T17:29:58;96926.75;;;21.04;100.00
21185;BME280;18176;49.502;11.754;2022-07-29T17:33:55;96941.63;;;21.15;100.00
21185;BME280;18176;49.502;11.754;2022-07-29T17:37:56;96933.97;;;21.22;100.00
21185;BME280;18176;49.502;11.754;2022-07-29T17:41:53;96895.41;;;21.08;100.00
21185;BME280;18176;49.502;11.754;2022-07-29T17:45:50;96924.75;;;21.23;100.00
21185;BME280;18176;49.502;11.754;2022-07-29T17:49:48;96923.59;;;21.29;100.00
21185;BME280;18176;49.502;11.754;2022-07-29T17:53:45;96914.22;;;21.40;100.00
21185;BME280;18176;49.502;11.754;2022-07-29T17:57:42;96913.50;;;21.48;100.00
21185;BME280;18176;49.502;11.754;2022-07-29T18:01:42;96916.19;;;21.48;100.00
21185;BME280;18176;49.502;11.754;2022-07-29T18:05:40;96930.78;;;21.20;99.93
21185;BME280;18176;49.502;11.754;2022-07-29T18:09:37;96930.78;;;21.20;100.00
21185;BME280;18176;49.502;11.754;2022-07-29T18:13:34;96924.69;;;21.28;100.00
21185;BME280;18176;49.502;11.754;2022-07-29T18:17:31;96931.19;;;21.41;100.00
21185;BME280;18176;49.502;11.754;2022-07-29T18:21:48;96929.59;;;21.53;99.81
21185;BME280;18176;49.502;11.754;2022-07-29T18:25:51;96918.50;;;21.41;100.00
21185;BME280;18176;49.502;11.754;2022-07-29T18:29:48;96903.34;;;21.45;100.00
21185;BME280;18176;49.502;11.754;2022-07-29T18:33:47;96901.81;;;21.39;97.81
21185;BME280;18176;49.502;11.754;2022-07-29T18:37:44;96897.22;;;21.26;97.96
21185;BME280;18176;49.502;11.754;2022-07-29T18:41:58;96891.63;;;20.77;100.00
21185;BME280;18176;49.502;11.754;2022-07-29T18:45:55;96870.06;;;20.45;100.00
21185;BME280;18176;49.502;11.754;2022-07-29T18:49:52;96879.88;;;20.54;100.00
21185;BME280;18176;49.502;11.754;2022-07-29T18:53:49;96873.31;;;20.47;100.00
21185;BME280;18176;49.502;11.754;2022-07-29T18:57:47;96879.50;;;20.61;99.88
21185;BME280;18176;49.502;11.754;2022-07-29T19:01:52;96865.34;;;20.55;98.77
21185;BME280;18176;49.502;11.754;2022-07-29T19:05:50;96871.53;;;20.56;99.21
21185;BME280;18176;49.502;11.754;2022-07-29T19:09:47;96865.91;;;20.52;98.29
21185;BME280;18176;49.502;11.754;2022-07-29T19:13:45;96849.16;;;20.42;99.88
21185;BME280;18176;49.502;11.754;2022-07-29T19:17:42;96871.97;;;20.63;100.00
21185;BME280;18176;49.502;11.754;2022-07-29T19:21:39;96843.78;;;20.42;98.72
21185;BME280;18176;49.502;11.754;2022-07-29T19:25:37;96891.66;;;20.58;98.80
21185;BME280;18176;49.502;11.754;2022-07-29T19:29:49;96909.03;;;20.66;99.94
21185;BME280;18176;49.502;11.754;2022-07-29T19:33:46;96879.69;;;20.51;100.00
21185;BME280;18176;49.502;11.754;2022-07-29T19:37:43;96916.88;;;20.81;100.00
21185;BME280;18176;49.502;11.754;2022-07-29T19:41:40;96919.66;;;20.76;100.00
21185;BME280;18176;49.502;11.754;2022-07-29T19:45:37;96873.88;;;20.44;100.00
21185;BME280;18176;49.502;11.754;2022-07-29T19:49:34;96918.00;;;20.61;100.00
21185;BME280;18176;49.502;11.754;2022-07-29T19:53:33;96942.09;;;20.71;100.00
21185;BME280;18176;49.502;11.754;2022-07-29T19:57:31;96933.03;;;20.81;100.00
21185;BME280;18176;49.502;11.754;2022-07-29T20:01:37;96902.91;;;20.79;100.00
21185;BME280;18176;49.502;11.754;2022-07-29T20:05:34;96921.56;;;21.08;99.86
21185;BME280;18176;49.502;11.754;2022-07-29T20:09:31;96924.91;;;20.99;100.00
21185;BME280;18176;49.502;11.754;2022-07-29T20:13:28;96910.47;;;20.77;100.00
21185;BME280;18176;49.502;11.754;2022-07-29T20:17:27;96915.59;;;20.60;100.00
21185;BME280;18176;49.502;11.754;2022-07-29T20:21:25;96917.53;;;20.73;98.99
21185;BME280;18176;49.502;11.754;2022-07-29T20:25:22;96927.84;;;20.84;99.34
21185;BME280;18176;49.502;11.754;2022-07-29T20:29:20;96934.44;;;20.78;99.65
21185;BME280;18176;49.502;11.754;2022-07-29T20:33:17;96941.28;;;20.52;99.63
21185;BME280;18176;49.502;11.754;2022-07-29T20:37:15;96959.63;;;20.69;99.16
21185;BME280;18176;49.502;11.754;2022-07-29T20:41:14;96975.53;;;20.84;98.49
21185;BME280;18176;49.502;11.754;2022-07-29T20:45:12;96979.06;;;20.47;100.00
21185;BME280;18176;49.502;11.754;2022-07-29T20:49:10;97001.00;;;20.36;100.00
21185;BME280;18176;49.502;11.754;2022-07-29T20:53:07;96978.91;;;20.39;100.00
21185;BME280;18176;49.502;11.754;2022-07-29T20:57:05;97001.75;;;20.60;99.65
21185;BME280;18176;49.502;11.754;2022-07-29T21:01:03;96995.63;;;20.36;100.00
21185;BME280;18176;49.502;11.754;2022-07-29T21:05:00;97005.69;;;20.49;100.00
21185;BME280;18176;49.502;11.754;2022-07-29T21:08:57;97001.38;;;20.48;99.96
21185;BME280;18176;49.502;11.754;2022-07-29T21:12:57;96979.50;;;20.36;100.00
21185;BME280;18176;49.502;11.754;2022-07-29T21:16:54;96985.25;;;20.48;99.72
21185;BME280;18176;49.502;11.754;2022-07-29T21:20:56;96985.69;;;20.36;100.00
21185;BME280;18176;49.502;11.754;2022-07-29T21:24:53;96982.69;;;20.38;100.00
21185;BME280;18176;49.502;11.754;2022-07-29T21:28:51;96987.44;;;20.46;99.77
21185;BME280;18176;49.502;11.754;2022-07-29T21:32:48;96984.66;;;20.32;99.78
21185;BME280;18176;49.502;11.754;2022-07-29T21:36:45;96990.47;;;20.39;99.80